Time;durP1;ratioP1;P1;durP2;ratioP2;P2;SDS_P1;SDS_P2;PMS_P1;PMS_P2;Temp;Humidity;BMP_temperature;BMP_pressure;BME280_temperature;BME280_humidity;BME280_pressure;Samples;Min_cycle;Max_cycle;Signal;HPM_P1;HPM_P2
2022/09/06 00:00:58;;;;;;;7.82;7.03;;;;;;;;;;4893756;29;20139;-74
2022/09/06 00:03:29;;;;;;;7.97;7.13;;;;;;;;;;4914724;29;20080;-74
2022/09/06 00:05:56;;;;;;;7.43;6.93;;;;;;;;;;4910585;29;20167;-73
2022/09/06 00:08:23;;;;;;;7.55;6.95;;;;;;;;;;4903627;29;20055;-73
2022/09/06 00:10:58;;;;;;;7.78;7.18;;;;;;;;;;4891789;29;20048;-73
2022/09/06 00:13:27;;;;;;;7.82;7.13;;;;;;;;;;4892358;29;20045;-73
2022/09/06 00:15:55;;;;;;;7.90;7.20;;;;;;;;;;4892446;29;20056;-73
2022/09/06 00:18:22;;;;;;;8.23;6.95;;;;;;;;;;4904726;29;20056;-75
2022/09/06 00:20:50;;;;;;;8.38;7.68;;;;;;;;;;4910310;29;20412;-73
2022/09/06 00:23:17;;;;;;;7.30;6.70;;;;;;;;;;4910448;29;20047;-73
2022/09/06 00:25:45;;;;;;;8.63;7.93;;;;;;;;;;4901385;29;20045;-74
2022/09/06 00:28:12;;;;;;;7.30;6.70;;;;;;;;;;4891116;29;20366;-73
2022/09/06 00:30:40;;;;;;;7.22;6.70;;;;;;;;;;4890543;29;20049;-74
2022/09/06 00:33:07;;;;;;;8.27;7.55;;;;;;;;;;4891288;29;20351;-74
2022/09/06 00:35:35;;;;;;;8.35;7.75;;;;;;;;;;4905458;29;20048;-73
2022/09/06 00:38:02;;;;;;;8.55;7.85;;;;;;;;;;4909635;29;20050;-72
2022/09/06 00:40:30;;;;;;;8.32;7.63;;;;;;;;;;4909976;29;20078;-74
2022/09/06 00:42:58;;;;;;;8.00;7.20;;;;;;;;;;4899565;29;20044;-74
2022/09/06 00:45:27;;;;;;;8.23;7.53;;;;;;;;;;4910605;29;20051;-74
2022/09/06 00:47:54;;;;;;;7.70;7.00;;;;;;;;;;4909744;29;20048;-74
2022/09/06 00:50:22;;;;;;;7.75;7.15;;;;;;;;;;4909577;29;20048;-73
2022/09/06 00:52:52;;;;;;;8.88;7.28;;;;;;;;;;4907227;29;20044;-74
2022/09/06 00:55:20;;;;;;;7.70;7.10;;;;;;;;;;4909825;29;20052;-73
2022/09/06 00:57:50;;;;;;;8.02;7.43;;;;;;;;;;4909343;29;20048;-73
2022/09/06 01:00:18;;;;;;;8.13;7.32;;;;;;;;;;4895953;29;20466;-74
2022/09/06 01:02:46;;;;;;;8.43;7.70;;;;;;;;;;4902649;29;20535;-73
2022/09/06 01:05:14;;;;;;;6.93;6.32;;;;;;;;;;4917931;29;20051;-72
2022/09/06 01:07:41;;;;;;;9.15;8.25;;;;;;;;;;4910899;29;20513;-74
2022/09/06 01:10:29;;;;;;;6.57;6.15;;;;;;;;;;4908804;29;20076;-73
2022/09/06 01:12:57;;;;;;;7.57;6.93;;;;;;;;;;4908489;29;20091;-73
2022/09/06 01:15:27;;;;;;;8.55;6.18;;;;;;;;;;4909262;29;20155;-73
2022/09/06 01:18:08;;;;;;;7.10;6.60;;;;;;;;;;4890027;29;20048;-74
2022/09/06 01:20:47;;;;;;;8.00;7.13;;;;;;;;;;4890351;29;20109;-73
2022/09/06 01:23:17;;;;;;;8.07;7.28;;;;;;;;;;4902881;29;20079;-74
2022/09/06 01:25:44;;;;;;;7.78;6.93;;;;;;;;;;4908883;29;20191;-74
2022/09/06 01:28:12;;;;;;;7.10;6.55;;;;;;;;;;4908685;29;20055;-73
2022/09/06 01:30:42;;;;;;;7.82;7.00;;;;;;;;;;4892646;29;20512;-72
2022/09/06 01:33:13;;;;;;;7.60;6.90;;;;;;;;;;4904036;29;20055;-73
2022/09/06 01:36:04;;;;;;;8.75;7.85;;;;;;;;;;4889157;29;20139;-74
2022/09/06 01:38:31;;;;;;;7.97;7.40;;;;;;;;;;4892260;29;20132;-73
2022/09/06 01:40:58;;;;;;;8.30;7.50;;;;;;;;;;4909307;29;20063;-73
2022/09/06 01:43:31;;;;;;;8.20;7.50;;;;;;;;;;4909424;29;20048;-73
2022/09/06 01:46:01;;;;;;;7.63;7.03;;;;;;;;;;4910581;29;20048;-74
2022/09/06 01:48:47;;;;;;;9.70;7.80;;;;;;;;;;4909606;29;20520;-73
2022/09/06 01:51:15;;;;;;;8.27;7.57;;;;;;;;;;4895854;29;20052;-73
2022/09/06 01:54:06;;;;;;;7.65;7.07;;;;;;;;;;4897134;29;20143;-74
2022/09/06 01:56:36;;;;;;;8.00;7.40;;;;;;;;;;4909292;29;20076;-74
2022/09/06 02:02:12;;;;;;;8.55;7.65;;;;;;;;;;4821801;29;20061;-70
2022/09/06 02:05:03;;;;;;;8.18;7.47;;;;;;;;;;4817198;29;20078;-68
2022/09/06 02:07:32;;;;;;;8.13;7.43;;;;;;;;;;4802582;29;20111;-68
2022/09/06 02:09:59;;;;;;;7.40;6.80;;;;;;;;;;4814696;29;20431;-68
2022/09/06 02:12:27;;;;;;;8.18;7.47;;;;;;;;;;4816448;29;20049;-68
2022/09/06 02:14:54;;;;;;;8.85;7.43;;;;;;;;;;4815592;29;20046;-68
2022/09/06 02:17:25;;;;;;;8.23;7.60;;;;;;;;;;4814937;29;20042;-68
2022/09/06 02:20:01;;;;;;;8.77;7.97;;;;;;;;;;4812239;29;20055;-68
2022/09/06 02:22:31;;;;;;;8.30;7.60;;;;;;;;;;4809925;29;20058;-68
2022/09/06 02:24:59;;;;;;;8.73;7.90;;;;;;;;;;4816361;29;20164;-68
2022/09/06 02:27:27;;;;;;;9.07;8.27;;;;;;;;;;4830935;29;20069;-68
2022/09/06 02:29:57;;;;;;;9.07;8.20;;;;;;;;;;4815142;29;20053;-68
2022/09/06 02:32:25;;;;;;;12.10;9.32;;;;;;;;;;4813228;29;20310;-68
2022/09/06 02:34:54;;;;;;;11.05;10.05;;;;;;;;;;4816154;29;20050;-68
2022/09/06 02:37:25;;;;;;;9.75;9.00;;;;;;;;;;4813239;29;20046;-68
2022/09/06 02:39:54;;;;;;;10.35;9.45;;;;;;;;;;4815930;29;20050;-68
2022/09/06 02:42:22;;;;;;;9.82;9.02;;;;;;;;;;4808423;29;20134;-68
2022/09/06 02:44:50;;;;;;;12.27;11.10;;;;;;;;;;4819327;29;20385;-68
2022/09/06 02:47:17;;;;;;;11.73;10.50;;;;;;;;;;4815440;29;20496;-68
2022/09/06 02:49:44;;;;;;;12.00;9.95;;;;;;;;;;4815749;29;20046;-68
2022/09/06 02:52:12;;;;;;;11.88;10.40;;;;;;;;;;4813400;29;20103;-68
2022/09/06 02:54:39;;;;;;;9.68;8.88;;;;;;;;;;4815359;29;20077;-68
2022/09/06 02:57:07;;;;;;;9.70;8.70;;;;;;;;;;4813896;29;20589;-69
2022/09/06 02:59:35;;;;;;;11.45;10.27;;;;;;;;;;4812842;29;20442;-69
2022/09/06 03:02:03;;;;;;;18.42;10.32;;;;;;;;;;4849637;29;20407;-68
2022/09/06 03:04:31;;;;;;;12.23;10.27;;;;;;;;;;4854956;29;20054;-68
2022/09/06 03:06:59;;;;;;;31.33;10.07;;;;;;;;;;4849319;29;20049;-68
2022/09/06 03:09:26;;;;;;;14.27;10.10;;;;;;;;;;4853573;29;20048;-68
2022/09/06 03:11:54;;;;;;;11.50;10.00;;;;;;;;;;4851390;29;20050;-68
2022/09/06 03:14:21;;;;;;;11.40;10.30;;;;;;;;;;4836291;29;20048;-68
2022/09/06 03:16:49;;;;;;;11.38;9.98;;;;;;;;;;4841401;29;20524;-71
2022/09/06 03:19:16;;;;;;;15.23;11.05;;;;;;;;;;4834386;29;20042;-68
2022/09/06 03:21:44;;;;;;;25.63;11.30;;;;;;;;;;4833472;29;20080;-68
2022/09/06 03:24:11;;;;;;;46.50;13.57;;;;;;;;;;4845322;29;20053;-68
2022/09/06 03:26:38;;;;;;;19.15;11.15;;;;;;;;;;4854367;29;20060;-69
2022/09/06 03:29:06;;;;;;;10.98;9.98;;;;;;;;;;4840052;29;20136;-69
2022/09/06 03:31:33;;;;;;;21.92;11.27;;;;;;;;;;4840367;29;20052;-68
2022/09/06 03:34:01;;;;;;;18.60;10.57;;;;;;;;;;4847607;29;20062;-69
2022/09/06 03:36:28;;;;;;;17.67;11.45;;;;;;;;;;4854916;29;20079;-69
2022/09/06 03:38:55;;;;;;;16.48;11.68;;;;;;;;;;4855262;29;20047;-69
2022/09/06 03:41:23;;;;;;;12.20;10.90;;;;;;;;;;4847142;29;20570;-68
2022/09/06 03:43:50;;;;;;;12.20;11.10;;;;;;;;;;4835971;29;20507;-69
2022/09/06 03:46:17;;;;;;;11.40;10.32;;;;;;;;;;4835614;29;20093;-69
2022/09/06 03:48:45;;;;;;;13.80;11.52;;;;;;;;;;4837952;29;20057;-69
2022/09/06 03:51:12;;;;;;;24.67;11.90;;;;;;;;;;4856068;29;20046;-69
2022/09/06 03:53:40;;;;;;;11.70;10.60;;;;;;;;;;4855365;29;20509;-69
2022/09/06 03:56:07;;;;;;;14.50;10.77;;;;;;;;;;4843225;29;20498;-69
2022/09/06 03:58:34;;;;;;;14.73;11.48;;;;;;;;;;4843765;29;20050;-69
2022/09/06 04:01:03;;;;;;;12.30;11.00;;;;;;;;;;4854766;29;20122;-69
2022/09/06 04:03:31;;;;;;;12.80;11.40;;;;;;;;;;4847964;29;20053;-69
2022/09/06 04:05:59;;;;;;;21.17;11.18;;;;;;;;;;4840264;29;20128;-69
2022/09/06 04:08:26;;;;;;;14.85;11.23;;;;;;;;;;4847216;29;20507;-68
2022/09/06 04:10:55;;;;;;;11.43;10.32;;;;;;;;;;4836797;29;20046;-68
2022/09/06 04:13:23;;;;;;;11.48;10.18;;;;;;;;;;4839124;29;20129;-68
2022/09/06 04:15:51;;;;;;;13.38;9.75;;;;;;;;;;4850905;29;20054;-69
2022/09/06 04:18:19;;;;;;;12.00;9.75;;;;;;;;;;4843029;29;20061;-68
2022/09/06 04:20:51;;;;;;;14.30;10.05;;;;;;;;;;4840553;29;20034;-69
2022/09/06 04:23:18;;;;;;;12.18;9.02;;;;;;;;;;4843801;29;20056;-68
2022/09/06 04:25:46;;;;;;;9.65;8.75;;;;;;;;;;4846813;29;20446;-69
2022/09/06 04:28:14;;;;;;;10.68;9.30;;;;;;;;;;4841139;29;20137;-68
2022/09/06 04:30:42;;;;;;;15.18;8.23;;;;;;;;;;4841037;29;20425;-68
2022/09/06 04:33:09;;;;;;;16.38;8.65;;;;;;;;;;4842800;29;20495;-68
2022/09/06 04:35:37;;;;;;;13.35;9.50;;;;;;;;;;4835520;29;20410;-69
2022/09/06 04:38:04;;;;;;;9.15;8.27;;;;;;;;;;4838751;29;20141;-68
2022/09/06 04:40:31;;;;;;;9.10;8.20;;;;;;;;;;4840436;29;20049;-68
2022/09/06 04:42:59;;;;;;;16.45;8.52;;;;;;;;;;4847778;29;20084;-68
2022/09/06 04:45:26;;;;;;;9.40;8.48;;;;;;;;;;4838823;29;20045;-68
2022/09/06 04:47:53;;;;;;;11.05;8.27;;;;;;;;;;4844627;29;20042;-68
2022/09/06 04:50:21;;;;;;;9.88;8.18;;;;;;;;;;4842924;29;20053;-68
2022/09/06 04:52:48;;;;;;;9.25;8.35;;;;;;;;;;4846212;29;20053;-69
2022/09/06 04:55:15;;;;;;;9.10;8.15;;;;;;;;;;4825441;29;20049;-68
2022/09/06 04:57:43;;;;;;;9.52;8.52;;;;;;;;;;4838787;29;21416;-69
2022/09/06 05:00:17;;;;;;;9.20;8.40;;;;;;;;;;4839423;29;20105;-69
2022/09/06 05:02:44;;;;;;;9.45;8.18;;;;;;;;;;4835080;29;20042;-69
2022/09/06 05:05:12;;;;;;;12.48;8.80;;;;;;;;;;4847694;29;20052;-69
2022/09/06 05:07:39;;;;;;;11.13;8.20;;;;;;;;;;4853197;29;20511;-69
2022/09/06 05:10:06;;;;;;;14.82;8.38;;;;;;;;;;4852704;29;20113;-69
2022/09/06 05:12:34;;;;;;;10.63;9.25;;;;;;;;;;4850904;29;20053;-69
2022/09/06 05:15:01;;;;;;;9.52;8.35;;;;;;;;;;4841154;29;20466;-68
2022/09/06 05:17:29;;;;;;;12.07;9.27;;;;;;;;;;4837641;29;20900;-68
2022/09/06 05:19:57;;;;;;;10.93;8.35;;;;;;;;;;4853675;29;20214;-69
2022/09/06 05:22:24;;;;;;;11.38;7.75;;;;;;;;;;4853608;29;20046;-68
2022/09/06 05:24:52;;;;;;;11.35;8.52;;;;;;;;;;4849465;29;20581;-69
2022/09/06 05:27:19;;;;;;;20.40;8.18;;;;;;;;;;4849571;29;20034;-69
2022/09/06 05:29:46;;;;;;;16.63;7.50;;;;;;;;;;4852605;29;20085;-68
2022/09/06 05:32:13;;;;;;;9.38;8.48;;;;;;;;;;4852320;29;20055;-69
2022/09/06 05:34:41;;;;;;;10.88;9.18;;;;;;;;;;4852534;29;20048;-69
2022/09/06 05:37:08;;;;;;;11.13;9.40;;;;;;;;;;4852164;29;20050;-69
2022/09/06 05:39:35;;;;;;;11.95;10.32;;;;;;;;;;4855459;29;20133;-68
2022/09/06 05:42:05;;;;;;;24.10;10.15;;;;;;;;;;4849388;29;20053;-69
2022/09/06 05:44:36;;;;;;;22.40;11.30;;;;;;;;;;4845625;29;20046;-69
2022/09/06 05:47:04;;;;;;;38.95;12.95;;;;;;;;;;4852470;29;20054;-69
2022/09/06 05:49:32;;;;;;;46.63;11.23;;;;;;;;;;4850128;29;20070;-69
2022/09/06 05:51:59;;;;;;;19.08;12.18;;;;;;;;;;4850227;29;20103;-69
2022/09/06 05:54:26;;;;;;;12.82;11.52;;;;;;;;;;4851450;29;20068;-69
2022/09/06 05:56:54;;;;;;;12.93;11.55;;;;;;;;;;4850829;29;20072;-69
2022/09/06 05:59:21;;;;;;;12.90;11.55;;;;;;;;;;4852352;29;20049;-69
2022/09/06 06:01:50;;;;;;;14.38;12.88;;;;;;;;;;4845735;29;20148;-69
2022/09/06 06:04:18;;;;;;;11.98;10.75;;;;;;;;;;4847089;29;20121;-69
2022/09/06 06:06:46;;;;;;;27.38;11.55;;;;;;;;;;4844654;29;20049;-69
2022/09/06 06:09:13;;;;;;;12.73;11.57;;;;;;;;;;4851495;29;20164;-69
2022/09/06 06:11:41;;;;;;;14.57;11.48;;;;;;;;;;4852179;29;20052;-69
2022/09/06 06:14:08;;;;;;;22.23;12.45;;;;;;;;;;4852127;29;20037;-69
2022/09/06 06:16:36;;;;;;;18.33;13.70;;;;;;;;;;4843810;29;20092;-69
2022/09/06 06:19:03;;;;;;;14.40;13.10;;;;;;;;;;4849317;29;20057;-69
2022/09/06 06:21:32;;;;;;;15.25;12.43;;;;;;;;;;4851355;29;20045;-69
2022/09/06 06:24:01;;;;;;;13.77;12.48;;;;;;;;;;4851356;29;20041;-68
2022/09/06 06:26:30;;;;;;;14.48;11.80;;;;;;;;;;4852656;29;20514;-69
2022/09/06 06:29:00;;;;;;;12.73;11.63;;;;;;;;;;4844885;29;20053;-69
2022/09/06 06:31:28;;;;;;;16.45;11.85;;;;;;;;;;4837183;29;20061;-69
2022/09/06 06:33:57;;;;;;;11.93;10.75;;;;;;;;;;4849182;29;20100;-69
2022/09/06 06:36:29;;;;;;;12.75;11.48;;;;;;;;;;4851143;29;20069;-69
2022/09/06 06:38:57;;;;;;;13.10;12.00;;;;;;;;;;4844578;29;20041;-70
2022/09/06 06:41:26;;;;;;;13.43;12.20;;;;;;;;;;4845402;29;20045;-69
2022/09/06 06:43:54;;;;;;;12.82;11.82;;;;;;;;;;4830298;29;20128;-69
2022/09/06 06:46:22;;;;;;;12.85;11.60;;;;;;;;;;4843125;29;20041;-69
2022/09/06 06:48:50;;;;;;;13.05;11.70;;;;;;;;;;4838681;29;20115;-69
2022/09/06 06:51:22;;;;;;;13.30;12.20;;;;;;;;;;4844288;29;20524;-69
2022/09/06 06:53:50;;;;;;;13.38;12.18;;;;;;;;;;4841193;29;20525;-69
2022/09/06 06:56:21;;;;;;;15.15;13.75;;;;;;;;;;4849882;29;20526;-69
2022/09/06 06:58:49;;;;;;;;;;;;;;;;;;4850784;29;20045;-69
2022/09/06 07:01:17;;;;;;;13.10;12.00;;;;;;;;;;4849447;29;19939;-68
2022/09/06 07:03:45;;;;;;;11.73;10.73;;;;;;;;;;4846723;29;20060;-69
2022/09/06 07:06:14;;;;;;;13.73;12.63;;;;;;;;;;4849875;29;20455;-69
2022/09/06 07:08:41;;;;;;;13.10;11.90;;;;;;;;;;4852812;29;20060;-69
2022/09/06 07:11:10;;;;;;;13.15;12.15;;;;;;;;;;4850238;29;20588;-69
2022/09/06 07:13:37;;;;;;;12.88;11.82;;;;;;;;;;4843930;29;20033;-69
2022/09/06 07:16:09;;;;;;;13.32;11.93;;;;;;;;;;4848600;29;20583;-69
2022/09/06 07:18:42;;;;;;;11.68;10.68;;;;;;;;;;4851124;29;20056;-68
2022/09/06 07:21:13;;;;;;;11.70;10.80;;;;;;;;;;4847974;29;20214;-69
2022/09/06 07:24:01;;;;;;;11.38;10.32;;;;;;;;;;4841410;29;20189;-69
2022/09/06 07:26:32;;;;;;;;;;;;;;;;;;4862368;29;20056;-69
2022/09/06 07:29:01;;;;;;;11.23;10.13;;;;;;;;;;4871493;29;19974;-69
2022/09/06 07:31:28;;;;;;;10.48;9.50;;;;;;;;;;4874234;29;20202;-69
2022/09/06 07:34:16;;;;;;;11.18;10.20;;;;;;;;;;4852935;29;20048;-69
2022/09/06 07:36:44;;;;;;;10.77;9.95;;;;;;;;;;4852219;29;20272;-69
2022/09/06 07:39:11;;;;;;;10.32;9.60;;;;;;;;;;4856116;29;20128;-69
2022/09/06 07:41:38;;;;;;;10.90;10.10;;;;;;;;;;4855806;29;20425;-68
2022/09/06 07:44:06;;;;;;;10.40;9.60;;;;;;;;;;4855596;29;20467;-69
2022/09/06 07:46:33;;;;;;;10.80;9.95;;;;;;;;;;4855224;29;20045;-70
2022/09/06 07:49:03;;;;;;;10.70;9.82;;;;;;;;;;4855796;29;20060;-69
2022/09/06 07:51:31;;;;;;;9.75;8.85;;;;;;;;;;4854476;29;20053;-69
2022/09/06 07:53:59;;;;;;;11.07;8.93;;;;;;;;;;4854631;29;20045;-69
2022/09/06 07:56:46;;;;;;;9.60;8.80;;;;;;;;;;4854956;29;20418;-69
2022/09/06 07:59:22;;;;;;;9.77;9.07;;;;;;;;;;4861802;23;20045;-77
2022/09/06 08:01:50;;;;;;;9.43;8.63;;;;;;;;;;4834688;29;20066;-75
2022/09/06 08:04:17;;;;;;;8.88;8.27;;;;;;;;;;4850999;29;20053;-74
2022/09/06 08:06:47;;;;;;;9.07;8.38;;;;;;;;;;4835122;29;20462;-73
2022/09/06 08:09:34;;;;;;;8.27;7.57;;;;;;;;;;4837893;29;20452;-75
2022/09/06 08:12:06;;;;;;;7.80;7.10;;;;;;;;;;4837383;29;20046;-75
2022/09/06 08:14:34;;;;;;;8.15;7.55;;;;;;;;;;4837455;29;20050;-73
2022/09/06 08:17:01;;;;;;;8.23;7.63;;;;;;;;;;4830149;29;20042;-72
2022/09/06 08:19:29;;;;;;;6.90;6.40;;;;;;;;;;4830371;29;20503;-76
2022/09/06 08:21:56;;;;;;;9.98;7.00;;;;;;;;;;4834376;29;20052;-76
2022/09/06 08:24:24;;;;;;;6.70;6.30;;;;;;;;;;4828010;29;21743;-74
2022/09/06 08:26:51;;;;;;;5.85;5.45;;;;;;;;;;4851131;29;20418;-74
2022/09/06 08:29:21;;;;;;;6.60;6.05;;;;;;;;;;4836069;29;20410;-76
2022/09/06 08:31:48;;;;;;;7.03;6.53;;;;;;;;;;4855188;29;20141;-75
2022/09/06 08:34:16;;;;;;;6.15;5.57;;;;;;;;;;4851725;29;20073;-77
2022/09/06 08:36:44;;;;;;;6.53;6.03;;;;;;;;;;4838105;29;20038;-74
2022/09/06 08:39:11;;;;;;;6.00;5.60;;;;;;;;;;4845538;29;20113;-73
2022/09/06 08:41:45;;;;;;;5.80;5.40;;;;;;;;;;4855448;29;20518;-74
2022/09/06 08:44:14;;;;;;;6.90;5.38;;;;;;;;;;4847036;29;20042;-74
2022/09/06 08:47:05;;;;;;;7.82;5.72;;;;;;;;;;4854218;29;20049;-75
2022/09/06 08:49:35;;;;;;;5.90;5.50;;;;;;;;;;4839976;29;20683;-74
2022/09/06 08:52:17;;;;;;;5.90;5.30;;;;;;;;;;4846534;29;20076;-73
2022/09/06 08:54:53;;;;;;;8.75;5.20;;;;;;;;;;4845657;29;20053;-73
2022/09/06 08:57:56;;;;;;;20.80;19.02;;;;;;;;;;4835512;29;20504;-73
2022/09/06 09:00:24;;;;;;;7.18;5.57;;;;;;;;;;4803341;29;20065;-72
2022/09/06 09:02:52;;;;;;;4.95;4.65;;;;;;;;;;4820888;29;20057;-72
2022/09/06 09:05:30;;;;;;;4.80;4.43;;;;;;;;;;4835545;29;20087;-72
2022/09/06 09:08:13;;;;;;;4.72;4.43;;;;;;;;;;4837556;29;20469;-74
2022/09/06 09:11:02;;;;;;;4.60;4.20;;;;;;;;;;4837579;29;20133;-73
2022/09/06 09:13:30;;;;;;;4.57;4.38;;;;;;;;;;4837514;29;20530;-73
2022/09/06 09:15:58;;;;;;;5.18;4.80;;;;;;;;;;4837178;29;20053;-73
2022/09/06 09:18:27;;;;;;;4.65;4.30;;;;;;;;;;4836922;29;20057;-74
2022/09/06 09:20:55;;;;;;;4.85;4.40;;;;;;;;;;4837200;29;20061;-73
2022/09/06 09:23:22;;;;;;;4.57;4.28;;;;;;;;;;4851027;29;20047;-73
2022/09/06 09:25:51;;;;;;;4.35;4.05;;;;;;;;;;4836775;29;20224;-72
2022/09/06 09:28:21;;;;;;;4.07;3.80;;;;;;;;;;4835454;29;20061;-74
2022/09/06 09:30:50;;;;;;;4.93;4.50;;;;;;;;;;4835502;29;20042;-74
2022/09/06 09:33:21;;;;;;;5.63;4.35;;;;;;;;;;4836410;29;20081;-76
2022/09/06 09:35:49;;;;;;;4.80;4.40;;;;;;;;;;4837204;29;20045;-74
2022/09/06 09:38:22;;;;;;;5.97;4.00;;;;;;;;;;4836343;29;20053;-73
2022/09/06 09:40:56;;;;;;;5.68;4.60;;;;;;;;;;4835181;29;20502;-72
2022/09/06 09:43:26;;;;;;;4.82;4.53;;;;;;;;;;4834807;29;20095;-73
2022/09/06 09:46:13;;;;;;;6.07;4.65;;;;;;;;;;4835294;29;20064;-72
2022/09/06 09:48:44;;;;;;;4.25;3.92;;;;;;;;;;4834292;29;20098;-73
2022/09/06 09:51:19;;;;;;;4.53;4.23;;;;;;;;;;4836318;29;20096;-73
2022/09/06 09:53:54;;;;;;;4.20;3.80;;;;;;;;;;4836096;29;20495;-74
2022/09/06 09:56:26;;;;;;;4.35;4.05;;;;;;;;;;4835813;29;20355;-72
2022/09/06 09:58:55;;;;;;;4.28;3.97;;;;;;;;;;4850040;29;20049;-73
2022/09/06 10:01:32;;;;;;;4.03;3.70;;;;;;;;;;4850288;29;20145;-74
2022/09/06 10:04:01;;;;;;;4.47;4.07;;;;;;;;;;4836673;29;20062;-72
2022/09/06 10:06:49;;;;;;;4.57;3.72;;;;;;;;;;4836363;29;20053;-73
2022/09/06 10:09:37;;;;;;;4.43;4.13;;;;;;;;;;4834776;29;20052;-73
2022/09/06 10:12:05;;;;;;;4.40;4.00;;;;;;;;;;4836127;29;20152;-73
2022/09/06 10:14:39;;;;;;;4.00;3.80;;;;;;;;;;4836334;29;20075;-73
2022/09/06 10:17:06;;;;;;;4.93;3.70;;;;;;;;;;4836278;29;20464;-74
2022/09/06 10:19:37;;;;;;;4.10;3.80;;;;;;;;;;4852108;29;20110;-74
2022/09/06 10:22:11;;;;;;;7.22;4.03;;;;;;;;;;4836468;29;20507;-73
2022/09/06 10:24:38;;;;;;;3.92;3.63;;;;;;;;;;4836219;29;20042;-73
2022/09/06 10:27:06;;;;;;;3.70;3.40;;;;;;;;;;4819662;29;20068;-74
2022/09/06 10:29:39;;;;;;;3.63;3.40;;;;;;;;;;4836514;29;20137;-74
2022/09/06 10:32:09;;;;;;;3.38;3.08;;;;;;;;;;4837760;29;20484;-73
2022/09/06 10:34:55;;;;;;;4.60;3.40;;;;;;;;;;4836957;29;20045;-72
2022/09/06 10:37:38;;;;;;;3.25;3.05;;;;;;;;;;4835375;29;20053;-72
2022/09/06 10:40:07;;;;;;;3.00;2.80;;;;;;;;;;4850021;29;20057;-73
2022/09/06 10:42:42;;;;;;;2.85;2.65;;;;;;;;;;4837716;29;20055;-74
2022/09/06 10:45:09;;;;;;;3.40;3.10;;;;;;;;;;4854160;29;20058;-74
2022/09/06 10:47:45;;;;;;;3.05;2.85;;;;;;;;;;4839675;29;20287;-75
2022/09/06 10:50:13;;;;;;;3.25;2.95;;;;;;;;;;4853836;29;20062;-75
2022/09/06 10:52:43;;;;;;;3.03;2.60;;;;;;;;;;4839212;29;20041;-73
2022/09/06 10:55:13;;;;;;;3.38;3.10;;;;;;;;;;4839400;29;20080;-74
2022/09/06 10:57:46;;;;;;;4.50;4.20;;;;;;;;;;4837748;29;20050;-74
2022/09/06 11:00:36;;;;;;;5.53;2.78;;;;;;;;;;4838947;29;20052;-73
2022/09/06 11:03:23;;;;;;;3.03;2.85;;;;;;;;;;4838753;29;20052;-75
2022/09/06 11:06:12;;;;;;;4.38;2.45;;;;;;;;;;4837319;29;20050;-74
2022/09/06 11:08:45;;;;;;;2.90;2.70;;;;;;;;;;4838628;29;20046;-74
2022/09/06 11:11:36;;;;;;;2.78;2.13;;;;;;;;;;4838723;29;20056;-74
2022/09/06 11:14:06;;;;;;;4.13;2.03;;;;;;;;;;4838567;29;20046;-74
2022/09/06 11:16:38;;;;;;;2.15;1.95;;;;;;;;;;4838861;29;20569;-73
2022/09/06 11:19:16;;;;;;;2.33;2.22;;;;;;;;;;4839097;29;20060;-74
2022/09/06 11:21:58;;;;;;;2.58;2.38;;;;;;;;;;4838700;29;20102;-74
2022/09/06 11:24:25;;;;;;;2.25;2.15;;;;;;;;;;4838617;29;20518;-74
2022/09/06 11:27:15;;;;;;;2.30;2.10;;;;;;;;;;4838338;29;20057;-74
2022/09/06 11:29:44;;;;;;;2.90;2.70;;;;;;;;;;4838643;29;20119;-74
2022/09/06 11:32:27;;;;;;;3.72;2.88;;;;;;;;;;4845083;29;20415;-74
2022/09/06 11:34:56;;;;;;;2.58;2.38;;;;;;;;;;4853995;29;20069;-75
2022/09/06 11:37:30;;;;;;;2.70;2.50;;;;;;;;;;4855857;29;20037;-74
2022/09/06 11:40:06;;;;;;;2.58;2.38;;;;;;;;;;4856043;29;21224;-73
2022/09/06 11:42:53;;;;;;;4.25;2.25;;;;;;;;;;4856136;29;20034;-74
2022/09/06 11:45:37;;;;;;;3.63;2.45;;;;;;;;;;4854975;29;20060;-71
2022/09/06 11:48:33;;;;;;;5.80;2.30;;;;;;;;;;4856545;29;20168;-75
2022/09/06 11:51:06;;;;;;;3.65;2.50;;;;;;;;;;4856177;29;20126;-73
2022/09/06 11:53:35;;;;;;;2.80;2.60;;;;;;;;;;4854829;29;20050;-74
2022/09/06 11:56:02;;;;;;;4.25;2.58;;;;;;;;;;4856213;29;20060;-74
2022/09/06 11:58:42;;;;;;;2.83;2.42;;;;;;;;;;4856718;29;20045;-74
2022/09/06 12:01:15;;;;;;;2.65;2.30;;;;;;;;;;4857016;29;20045;-74
2022/09/06 12:03:45;;;;;;;2.60;2.40;;;;;;;;;;4854979;29;20069;-74
2022/09/06 12:06:34;;;;;;;2.05;1.92;;;;;;;;;;4832977;29;20042;-75
2022/09/06 12:09:02;;;;;;;2.50;2.30;;;;;;;;;;4838136;29;20069;-73
2022/09/06 12:11:33;;;;;;;3.22;2.10;;;;;;;;;;4835997;29;20050;-72
2022/09/06 12:14:19;;;;;;;2.25;2.15;;;;;;;;;;4837677;29;20080;-74
2022/09/06 12:16:55;;;;;;;2.75;2.47;;;;;;;;;;4837096;29;20077;-74
2022/09/06 12:19:56;;;;;;;2.33;2.22;;;;;;;;;;4837882;29;20133;-74
2022/09/06 12:22:31;;;;;;;2.53;2.40;;;;;;;;;;4835595;29;20145;-74
2022/09/06 12:24:58;;;;;;;2.90;2.47;;;;;;;;;;4837473;29;20073;-73
2022/09/06 12:27:31;;;;;;;5.05;2.40;;;;;;;;;;4851129;29;20058;-74
2022/09/06 12:30:00;;;;;;;3.00;2.30;;;;;;;;;;4835358;29;20057;-74
2022/09/06 12:32:33;;;;;;;2.70;2.50;;;;;;;;;;4826278;29;20060;-75
2022/09/06 12:35:13;;;;;;;3.15;2.22;;;;;;;;;;4831411;29;20591;-74
2022/09/06 12:38:02;;;;;;;2.40;2.17;;;;;;;;;;4836168;29;20050;-74
2022/09/06 12:40:33;;;;;;;2.95;2.72;;;;;;;;;;4835482;29;20415;-74
2022/09/06 12:43:02;;;;;;;2.67;2.43;;;;;;;;;;4833497;29;20049;-75
2022/09/06 12:45:30;;;;;;;2.67;2.50;;;;;;;;;;4836748;29;20050;-75
2022/09/06 12:48:09;;;;;;;4.53;2.50;;;;;;;;;;4835937;29;20431;-73
2022/09/06 12:50:37;;;;;;;6.78;2.33;;;;;;;;;;4865273;29;20054;-71
2022/09/06 12:53:16;;;;;;;2.45;2.20;;;;;;;;;;4836187;29;20416;-74
2022/09/06 12:55:48;;;;;;;3.28;2.13;;;;;;;;;;4843121;29;20095;-74
2022/09/06 12:58:16;;;;;;;2.22;2.05;;;;;;;;;;4848611;29;20046;-74
2022/09/06 13:00:45;;;;;;;2.22;2.00;;;;;;;;;;4834383;29;20050;-74
2022/09/06 13:03:24;;;;;;;2.20;2.10;;;;;;;;;;4843779;29;20033;-74
2022/09/06 13:05:52;;;;;;;2.28;2.17;;;;;;;;;;4839806;29;20487;-74
2022/09/06 13:08:46;;;;;;;2.28;2.05;;;;;;;;;;4837477;29;20049;-74
2022/09/06 13:11:16;;;;;;;2.40;2.10;;;;;;;;;;4834265;29;20357;-73
2022/09/06 13:13:47;;;;;;;2.78;2.00;;;;;;;;;;4834912;29;20061;-74
2022/09/06 13:16:19;;;;;;;2.40;2.15;;;;;;;;;;4835176;29;20034;-73
2022/09/06 13:18:46;;;;;;;3.03;2.20;;;;;;;;;;4835861;29;20042;-74
2022/09/06 13:21:24;;;;;;;3.97;2.13;;;;;;;;;;4839989;29;20046;-73
2022/09/06 13:23:52;;;;;;;2.85;2.65;;;;;;;;;;4853176;29;20049;-72
2022/09/06 13:26:33;;;;;;;2.83;2.60;;;;;;;;;;4841943;29;20053;-72
2022/09/06 13:29:16;;;;;;;3.08;2.20;;;;;;;;;;4835897;29;20082;-74
2022/09/06 13:31:47;;;;;;;4.60;2.40;;;;;;;;;;4834972;29;20046;-74
2022/09/06 13:34:25;;;;;;;2.17;2.08;;;;;;;;;;4840382;29;20141;-75
2022/09/06 13:36:53;;;;;;;3.78;2.25;;;;;;;;;;4852067;29;20072;-72
2022/09/06 13:39:30;;;;;;;3.65;2.10;;;;;;;;;;4852727;29;20127;-70
2022/09/06 13:42:04;;;;;;;2.50;2.30;;;;;;;;;;4842671;29;20415;-74
2022/09/06 13:44:32;;;;;;;2.67;2.00;;;;;;;;;;4846293;29;20043;-74
2022/09/06 13:46:59;;;;;;;2.33;2.05;;;;;;;;;;4845142;29;20041;-74
2022/09/06 13:49:27;;;;;;;3.38;2.15;;;;;;;;;;4852035;29;20426;-74
2022/09/06 13:51:58;;;;;;;3.88;2.47;;;;;;;;;;4844045;29;20068;-72
2022/09/06 13:54:26;;;;;;;3.33;1.95;;;;;;;;;;4849294;29;20085;-75
2022/09/06 13:56:54;;;;;;;2.20;2.00;;;;;;;;;;4833474;29;20037;-74
2022/09/06 13:59:23;;;;;;;2.00;1.90;;;;;;;;;;4836619;29;20041;-75
2022/09/06 14:02:11;;;;;;;2.53;2.15;;;;;;;;;;4847804;29;20045;-74
2022/09/06 14:04:39;;;;;;;2.10;2.00;;;;;;;;;;4852920;29;20577;-75
2022/09/06 14:07:06;;;;;;;6.47;2.13;;;;;;;;;;5119547;23;20430;-75
2022/09/06 14:09:33;;;;;;;2.08;1.98;;;;;;;;;;4839534;29;20125;-74
2022/09/06 14:12:01;;;;;;;2.20;2.10;;;;;;;;;;4841180;29;20419;-75
2022/09/06 14:14:28;;;;;;;2.10;2.00;;;;;;;;;;4845801;29;20567;-76
2022/09/06 14:16:58;;;;;;;1.90;1.80;;;;;;;;;;4840526;29;20498;-74
2022/09/06 14:19:26;;;;;;;2.00;1.90;;;;;;;;;;4831192;29;20412;-74
2022/09/06 14:21:53;;;;;;;2.20;2.10;;;;;;;;;;4828551;29;20046;-75
2022/09/06 14:24:21;;;;;;;2.60;2.10;;;;;;;;;;4834127;29;20110;-74
2022/09/06 14:26:48;;;;;;;3.28;2.42;;;;;;;;;;4835432;29;20113;-76
2022/09/06 14:29:16;;;;;;;2.67;2.47;;;;;;;;;;4836006;29;20562;-75
2022/09/06 14:31:43;;;;;;;2.88;2.20;;;;;;;;;;4835480;29;20459;-74
2022/09/06 14:34:10;;;;;;;4.22;2.15;;;;;;;;;;4835489;29;20049;-75
2022/09/06 14:36:38;;;;;;;2.10;2.00;;;;;;;;;;4834948;29;20073;-73
2022/09/06 14:39:06;;;;;;;2.35;2.15;;;;;;;;;;4834685;29;20050;-75
2022/09/06 14:41:33;;;;;;;2.17;2.08;;;;;;;;;;4836086;29;20046;-76
2022/09/06 14:44:01;;;;;;;3.30;2.25;;;;;;;;;;4835174;29;20038;-75
2022/09/06 14:46:28;;;;;;;2.45;2.00;;;;;;;;;;4833850;29;20149;-74
2022/09/06 14:48:57;;;;;;;2.60;2.40;;;;;;;;;;4834606;29;20566;-75
2022/09/06 14:51:25;;;;;;;2.80;2.10;;;;;;;;;;4828621;29;20069;-75
2022/09/06 14:53:54;;;;;;;2.65;2.00;;;;;;;;;;4832313;29;20049;-76
2022/09/06 14:56:22;;;;;;;2.33;2.13;;;;;;;;;;4831877;29;20069;-75
2022/09/06 14:58:49;;;;;;;2.60;2.40;;;;;;;;;;4830256;29;20105;-75
2022/09/06 15:01:21;;;;;;;2.63;2.40;;;;;;;;;;4796072;29;20102;-74